sensor_id;sensor_type;location;lat;lon;timestamp;P1;durP1;ratioP1;P2;durP2;ratioP2
5491;SDS011;2768;53.540;10.224;2023-06-22T00:02:19;4.20;;;3.70;;
5491;SDS011;2768;53.540;10.224;2023-06-22T00:08:13;4.37;;;3.90;;
5491;SDS011;2768;53.540;10.224;2023-06-22T00:14:07;3.47;;;3.10;;
5491;SDS011;2768;53.540;10.224;2023-06-22T00:20:02;3.40;;;3.07;;
5491;SDS011;2768;53.540;10.224;2023-06-22T00:25:59;4.10;;;3.53;;
5491;SDS011;2768;53.540;10.224;2023-06-22T00:31:53;6.40;;;3.10;;
5491;SDS011;2768;53.540;10.224;2023-06-22T00:37:48;3.00;;;2.70;;
5491;SDS011;2768;53.540;10.224;2023-06-22T00:43:44;3.80;;;3.33;;
5491;SDS011;2768;53.540;10.224;2023-06-22T00:49:38;3.97;;;3.10;;
5491;SDS011;2768;53.540;10.224;2023-06-22T00:55:32;4.10;;;3.70;;
5491;SDS011;2768;53.540;10.224;2023-06-22T01:01:28;3.90;;;3.20;;
5491;SDS011;2768;53.540;10.224;2023-06-22T01:07:34;3.80;;;3.50;;
5491;SDS011;2768;53.540;10.224;2023-06-22T01:13:35;3.70;;;3.33;;
5491;SDS011;2768;53.540;10.224;2023-06-22T01:19:38;3.80;;;3.40;;
5491;SDS011;2768;53.540;10.224;2023-06-22T01:25:43;3.43;;;2.80;;
5491;SDS011;2768;53.540;10.224;2023-06-22T01:31:43;3.70;;;3.40;;
5491;SDS011;2768;53.540;10.224;2023-06-22T01:37:38;3.53;;;3.20;;
5491;SDS011;2768;53.540;10.224;2023-06-22T01:43:31;3.57;;;3.27;;
5491;SDS011;2768;53.540;10.224;2023-06-22T01:56:52;3.93;;;3.60;;
5491;SDS011;2768;53.540;10.224;2023-06-22T02:02:51;4.13;;;3.10;;
5491;SDS011;2768;53.540;10.224;2023-06-22T02:08:49;3.50;;;3.20;;
5491;SDS011;2768;53.540;10.224;2023-06-22T02:14:49;3.87;;;3.47;;
5491;SDS011;2768;53.540;10.224;2023-06-22T02:20:43;4.37;;;3.57;;
5491;SDS011;2768;53.540;10.224;2023-06-22T02:26:36;6.80;;;3.50;;
5491;SDS011;2768;53.540;10.224;2023-06-22T02:32:32;3.90;;;3.50;;
5491;SDS011;2768;53.540;10.224;2023-06-22T02:38:26;4.67;;;3.30;;
5491;SDS011;2768;53.540;10.224;2023-06-22T02:44:24;5.00;;;3.57;;
5491;SDS011;2768;53.540;10.224;2023-06-22T02:50:19;4.83;;;3.37;;
5491;SDS011;2768;53.540;10.224;2023-06-22T02:56:12;3.33;;;3.03;;
5491;SDS011;2768;53.540;10.224;2023-06-22T03:02:05;3.80;;;3.23;;
5491;SDS011;2768;53.540;10.224;2023-06-22T03:08:00;3.37;;;3.07;;
5491;SDS011;2768;53.540;10.224;2023-06-22T03:13:56;3.93;;;3.53;;
5491;SDS011;2768;53.540;10.224;2023-06-22T03:19:49;4.43;;;3.60;;
5491;SDS011;2768;53.540;10.224;2023-06-22T03:25:44;5.73;;;4.43;;
5491;SDS011;2768;53.540;10.224;2023-06-22T03:31:38;4.50;;;4.10;;
5491;SDS011;2768;53.540;10.224;2023-06-22T03:37:31;5.30;;;3.83;;
5491;SDS011;2768;53.540;10.224;2023-06-22T03:43:26;9.53;;;4.57;;
5491;SDS011;2768;53.540;10.224;2023-06-22T03:49:20;3.90;;;3.60;;
5491;SDS011;2768;53.540;10.224;2023-06-22T03:55:13;4.70;;;4.30;;
5491;SDS011;2768;53.540;10.224;2023-06-22T04:01:08;4.00;;;3.70;;
5491;SDS011;2768;53.540;10.224;2023-06-22T04:07:02;4.57;;;4.00;;
5491;SDS011;2768;53.540;10.224;2023-06-22T04:12:56;4.20;;;3.77;;
5491;SDS011;2768;53.540;10.224;2023-06-22T04:18:51;5.00;;;4.13;;
5491;SDS011;2768;53.540;10.224;2023-06-22T04:24:44;5.00;;;4.60;;
5491;SDS011;2768;53.540;10.224;2023-06-22T04:30:37;5.27;;;4.80;;
5491;SDS011;2768;53.540;10.224;2023-06-22T04:36:40;7.17;;;5.27;;
5491;SDS011;2768;53.540;10.224;2023-06-22T04:42:33;5.50;;;5.00;;
5491;SDS011;2768;53.540;10.224;2023-06-22T04:48:27;6.00;;;5.40;;
5491;SDS011;2768;53.540;10.224;2023-06-22T04:54:25;6.63;;;4.73;;
5491;SDS011;2768;53.540;10.224;2023-06-22T05:00:19;7.40;;;5.60;;
5491;SDS011;2768;53.540;10.224;2023-06-22T05:06:14;6.17;;;5.20;;
5491;SDS011;2768;53.540;10.224;2023-06-22T05:12:10;6.60;;;5.30;;
5491;SDS011;2768;53.540;10.224;2023-06-22T05:18:03;5.83;;;5.20;;
5491;SDS011;2768;53.540;10.224;2023-06-22T05:23:57;6.90;;;5.40;;
5491;SDS011;2768;53.540;10.224;2023-06-22T05:29:53;5.90;;;5.40;;
5491;SDS011;2768;53.540;10.224;2023-06-22T05:36:04;6.53;;;4.70;;
5491;SDS011;2768;53.540;10.224;2023-06-22T05:41:57;10.43;;;5.10;;
5491;SDS011;2768;53.540;10.224;2023-06-22T05:47:52;7.70;;;5.13;;
5491;SDS011;2768;53.540;10.224;2023-06-22T05:53:45;6.20;;;4.13;;
5491;SDS011;2768;53.540;10.224;2023-06-22T05:59:41;6.03;;;4.97;;
5491;SDS011;2768;53.540;10.224;2023-06-22T06:05:35;5.27;;;4.77;;
5491;SDS011;2768;53.540;10.224;2023-06-22T06:11:29;4.97;;;4.03;;
5491;SDS011;2768;53.540;10.224;2023-06-22T06:17:22;3.70;;;3.40;;
5491;SDS011;2768;53.540;10.224;2023-06-22T06:23:18;3.67;;;3.30;;
5491;SDS011;2768;53.540;10.224;2023-06-22T06:29:11;4.17;;;3.07;;
5491;SDS011;2768;53.540;10.224;2023-06-22T06:35:08;3.80;;;3.40;;
5491;SDS011;2768;53.540;10.224;2023-06-22T06:41:03;4.23;;;3.83;;
5491;SDS011;2768;53.540;10.224;2023-06-22T06:46:56;4.70;;;3.90;;
5491;SDS011;2768;53.540;10.224;2023-06-22T06:52:50;4.20;;;3.70;;
5491;SDS011;2768;53.540;10.224;2023-06-22T06:58:44;4.00;;;3.60;;
5491;SDS011;2768;53.540;10.224;2023-06-22T07:04:37;6.03;;;4.60;;
5491;SDS011;2768;53.540;10.224;2023-06-22T07:10:31;8.20;;;3.37;;
5491;SDS011;2768;53.540;10.224;2023-06-22T07:16:25;3.50;;;2.97;;
5491;SDS011;2768;53.540;10.224;2023-06-22T07:22:19;4.43;;;3.40;;
5491;SDS011;2768;53.540;10.224;2023-06-22T07:28:12;3.97;;;3.20;;
5491;SDS011;2768;53.540;10.224;2023-06-22T07:34:07;4.67;;;2.60;;
5491;SDS011;2768;53.540;10.224;2023-06-22T07:40:00;3.03;;;2.83;;
5491;SDS011;2768;53.540;10.224;2023-06-22T07:45:57;4.40;;;2.80;;
5491;SDS011;2768;53.540;10.224;2023-06-22T07:51:52;2.70;;;2.50;;
5491;SDS011;2768;53.540;10.224;2023-06-22T07:57:46;3.93;;;2.63;;
5491;SDS011;2768;53.540;10.224;2023-06-22T08:03:43;3.13;;;2.83;;
5491;SDS011;2768;53.540;10.224;2023-06-22T08:09:38;2.97;;;2.70;;
5491;SDS011;2768;53.540;10.224;2023-06-22T08:15:31;4.30;;;2.83;;
5491;SDS011;2768;53.540;10.224;2023-06-22T08:21:24;2.83;;;2.53;;
5491;SDS011;2768;53.540;10.224;2023-06-22T08:27:19;2.77;;;2.50;;
5491;SDS011;2768;53.540;10.224;2023-06-22T08:33:15;2.87;;;2.67;;
5491;SDS011;2768;53.540;10.224;2023-06-22T08:39:18;3.47;;;2.40;;
5491;SDS011;2768;53.540;10.224;2023-06-22T08:45:14;3.30;;;2.47;;
5491;SDS011;2768;53.540;10.224;2023-06-22T08:51:08;1.90;;;1.80;;
5491;SDS011;2768;53.540;10.224;2023-06-22T08:57:01;2.70;;;2.10;;
5491;SDS011;2768;53.540;10.224;2023-06-22T09:02:56;2.13;;;1.90;;
5491;SDS011;2768;53.540;10.224;2023-06-22T09:08:50;2.63;;;2.43;;
5491;SDS011;2768;53.540;10.224;2023-06-22T09:14:44;2.87;;;2.40;;
5491;SDS011;2768;53.540;10.224;2023-06-22T09:20:38;2.57;;;2.27;;
5491;SDS011;2768;53.540;10.224;2023-06-22T09:26:31;2.80;;;2.60;;
5491;SDS011;2768;53.540;10.224;2023-06-22T09:32:25;3.40;;;2.20;;
5491;SDS011;2768;53.540;10.224;2023-06-22T09:38:19;3.40;;;2.60;;
5491;SDS011;2768;53.540;10.224;2023-06-22T09:44:13;2.03;;;1.93;;
5491;SDS011;2768;53.540;10.224;2023-06-22T09:50:06;3.50;;;2.93;;
5491;SDS011;2768;53.540;10.224;2023-06-22T09:56:01;2.93;;;2.73;;
5491;SDS011;2768;53.540;10.224;2023-06-22T10:01:54;4.23;;;2.77;;
5491;SDS011;2768;53.540;10.224;2023-06-22T10:07:47;2.97;;;2.47;;
5491;SDS011;2768;53.540;10.224;2023-06-22T10:13:42;2.53;;;2.33;;
5491;SDS011;2768;53.540;10.224;2023-06-22T10:19:35;2.70;;;2.50;;
5491;SDS011;2768;53.540;10.224;2023-06-22T10:25:29;3.53;;;2.73;;
5491;SDS011;2768;53.540;10.224;2023-06-22T10:31:24;2.97;;;2.67;;
5491;SDS011;2768;53.540;10.224;2023-06-22T10:37:19;3.73;;;3.00;;
5491;SDS011;2768;53.540;10.224;2023-06-22T10:43:12;3.40;;;3.10;;
5491;SDS011;2768;53.540;10.224;2023-06-22T10:49:06;3.93;;;3.37;;
5491;SDS011;2768;53.540;10.224;2023-06-22T10:54:59;3.93;;;3.33;;
5491;SDS011;2768;53.540;10.224;2023-06-22T11:00:53;6.00;;;3.40;;
5491;SDS011;2768;53.540;10.224;2023-06-22T11:06:48;5.87;;;3.03;;
5491;SDS011;2768;53.540;10.224;2023-06-22T11:12:41;4.13;;;3.03;;
5491;SDS011;2768;53.540;10.224;2023-06-22T11:18:35;4.37;;;3.37;;
5491;SDS011;2768;53.540;10.224;2023-06-22T11:24:30;3.30;;;3.10;;
5491;SDS011;2768;53.540;10.224;2023-06-22T11:30:23;3.10;;;2.90;;
5491;SDS011;2768;53.540;10.224;2023-06-22T11:36:18;3.60;;;3.10;;
5491;SDS011;2768;53.540;10.224;2023-06-22T11:42:14;3.83;;;3.43;;
5491;SDS011;2768;53.540;10.224;2023-06-22T11:48:07;4.73;;;4.00;;
5491;SDS011;2768;53.540;10.224;2023-06-22T11:54:00;3.73;;;3.10;;
5491;SDS011;2768;53.540;10.224;2023-06-22T11:59:56;5.47;;;3.83;;
5491;SDS011;2768;53.540;10.224;2023-06-22T12:05:49;4.00;;;3.60;;
5491;SDS011;2768;53.540;10.224;2023-06-22T12:11:43;4.93;;;3.73;;
5491;SDS011;2768;53.540;10.224;2023-06-22T12:17:38;4.50;;;4.10;;
5491;SDS011;2768;53.540;10.224;2023-06-22T12:23:32;7.40;;;4.20;;
5491;SDS011;2768;53.540;10.224;2023-06-22T12:29:26;5.10;;;4.20;;
5491;SDS011;2768;53.540;10.224;2023-06-22T12:35:20;4.73;;;4.37;;
5491;SDS011;2768;53.540;10.224;2023-06-22T12:41:14;4.80;;;4.40;;
5491;SDS011;2768;53.540;10.224;2023-06-22T12:47:08;4.80;;;4.37;;
5491;SDS011;2768;53.540;10.224;2023-06-22T12:53:03;4.53;;;4.13;;
5491;SDS011;2768;53.540;10.224;2023-06-22T12:58:57;6.80;;;4.53;;
5491;SDS011;2768;53.540;10.224;2023-06-22T13:04:53;4.93;;;4.53;;
5491;SDS011;2768;53.540;10.224;2023-06-22T13:10:48;4.93;;;4.53;;
5491;SDS011;2768;53.540;10.224;2023-06-22T13:16:41;4.50;;;4.20;;
5491;SDS011;2768;53.540;10.224;2023-06-22T13:22:35;7.30;;;4.40;;
5491;SDS011;2768;53.540;10.224;2023-06-22T13:28:33;4.83;;;4.37;;
5491;SDS011;2768;53.540;10.224;2023-06-22T13:34:27;4.77;;;4.37;;
5491;SDS011;2768;53.540;10.224;2023-06-22T13:40:38;4.27;;;3.93;;
5491;SDS011;2768;53.540;10.224;2023-06-22T13:46:50;6.67;;;4.17;;
5491;SDS011;2768;53.540;10.224;2023-06-22T13:53:01;4.93;;;4.30;;
5491;SDS011;2768;53.540;10.224;2023-06-22T13:58:54;4.07;;;3.67;;
5491;SDS011;2768;53.540;10.224;2023-06-22T14:04:48;4.07;;;3.67;;
5491;SDS011;2768;53.540;10.224;2023-06-22T14:10:42;4.37;;;4.00;;
5491;SDS011;2768;53.540;10.224;2023-06-22T14:16:35;4.60;;;3.93;;
5491;SDS011;2768;53.540;10.224;2023-06-22T14:22:29;6.67;;;4.23;;
5491;SDS011;2768;53.540;10.224;2023-06-22T14:28:23;5.43;;;4.43;;
5491;SDS011;2768;53.540;10.224;2023-06-22T14:34:16;5.33;;;4.63;;
5491;SDS011;2768;53.540;10.224;2023-06-22T14:40:11;4.73;;;4.23;;
5491;SDS011;2768;53.540;10.224;2023-06-22T14:46:05;6.93;;;4.60;;
5491;SDS011;2768;53.540;10.224;2023-06-22T14:51:59;4.50;;;4.07;;
5491;SDS011;2768;53.540;10.224;2023-06-22T14:57:54;4.63;;;4.20;;
5491;SDS011;2768;53.540;10.224;2023-06-22T15:03:47;6.60;;;4.70;;
5491;SDS011;2768;53.540;10.224;2023-06-22T15:09:41;6.50;;;3.87;;
5491;SDS011;2768;53.540;10.224;2023-06-22T15:15:38;4.23;;;3.90;;
5491;SDS011;2768;53.540;10.224;2023-06-22T15:21:31;4.20;;;3.90;;
5491;SDS011;2768;53.540;10.224;2023-06-22T15:27:24;4.23;;;3.90;;
5491;SDS011;2768;53.540;10.224;2023-06-22T15:33:19;3.80;;;3.50;;
5491;SDS011;2768;53.540;10.224;2023-06-22T15:39:12;4.57;;;4.07;;
5491;SDS011;2768;53.540;10.224;2023-06-22T15:45:06;4.53;;;4.03;;
5491;SDS011;2768;53.540;10.224;2023-06-22T15:51:02;4.30;;;3.90;;
5491;SDS011;2768;53.540;10.224;2023-06-22T15:56:55;4.10;;;3.80;;
5491;SDS011;2768;53.540;10.224;2023-06-22T16:02:48;6.10;;;3.63;;
5491;SDS011;2768;53.540;10.224;2023-06-22T16:08:43;3.40;;;3.10;;
5491;SDS011;2768;53.540;10.224;2023-06-22T16:14:37;4.67;;;3.80;;
5491;SDS011;2768;53.540;10.224;2023-06-22T16:20:32;3.47;;;3.17;;
5491;SDS011;2768;53.540;10.224;2023-06-22T16:26:29;3.47;;;2.87;;
5491;SDS011;2768;53.540;10.224;2023-06-22T16:32:23;3.03;;;2.70;;
5491;SDS011;2768;53.540;10.224;2023-06-22T16:38:17;3.30;;;3.00;;
5491;SDS011;2768;53.540;10.224;2023-06-22T16:44:11;3.77;;;3.10;;
5491;SDS011;2768;53.540;10.224;2023-06-22T16:50:05;3.20;;;2.90;;
5491;SDS011;2768;53.540;10.224;2023-06-22T16:55:59;2.77;;;2.50;;
5491;SDS011;2768;53.540;10.224;2023-06-22T17:01:55;5.43;;;2.50;;
5491;SDS011;2768;53.540;10.224;2023-06-22T17:07:51;4.37;;;2.80;;
5491;SDS011;2768;53.540;10.224;2023-06-22T17:13:45;2.83;;;2.63;;
5491;SDS011;2768;53.540;10.224;2023-06-22T17:19:42;3.13;;;2.80;;
5491;SDS011;2768;53.540;10.224;2023-06-22T17:25:36;3.37;;;3.07;;
5491;SDS011;2768;53.540;10.224;2023-06-22T17:31:35;2.83;;;2.50;;
5491;SDS011;2768;53.540;10.224;2023-06-22T17:37:33;3.50;;;3.03;;
5491;SDS011;2768;53.540;10.224;2023-06-22T17:43:48;3.00;;;2.80;;
5491;SDS011;2768;53.540;10.224;2023-06-22T17:49:41;4.13;;;2.57;;
5491;SDS011;2768;53.540;10.224;2023-06-22T17:55:35;2.90;;;2.37;;
5491;SDS011;2768;53.540;10.224;2023-06-22T18:01:30;2.93;;;2.67;;
5491;SDS011;2768;53.540;10.224;2023-06-22T18:07:25;2.63;;;1.90;;
5491;SDS011;2768;53.540;10.224;2023-06-22T18:13:22;2.63;;;2.13;;
5491;SDS011;2768;53.540;10.224;2023-06-22T18:19:17;2.60;;;2.20;;
5491;SDS011;2768;53.540;10.224;2023-06-22T18:25:11;1.83;;;1.73;;
5491;SDS011;2768;53.540;10.224;2023-06-22T18:31:08;2.40;;;1.70;;
5491;SDS011;2768;53.540;10.224;2023-06-22T18:37:03;3.53;;;2.03;;
5491;SDS011;2768;53.540;10.224;2023-06-22T18:43:01;2.60;;;1.80;;
5491;SDS011;2768;53.540;10.224;2023-06-22T18:48:58;1.30;;;1.20;;
5491;SDS011;2768;53.540;10.224;2023-06-22T18:54:54;1.70;;;1.60;;
5491;SDS011;2768;53.540;10.224;2023-06-22T19:00:50;4.13;;;1.60;;
5491;SDS011;2768;53.540;10.224;2023-06-22T19:06:57;2.10;;;1.60;;
5491;SDS011;2768;53.540;10.224;2023-06-22T19:12:52;4.80;;;2.37;;
5491;SDS011;2768;53.540;10.224;2023-06-22T19:18:48;2.43;;;2.10;;
5491;SDS011;2768;53.540;10.224;2023-06-22T19:24:48;2.17;;;1.97;;
5491;SDS011;2768;53.540;10.224;2023-06-22T19:30:43;1.63;;;1.53;;
5491;SDS011;2768;53.540;10.224;2023-06-22T19:36:37;1.63;;;1.53;;
5491;SDS011;2768;53.540;10.224;2023-06-22T19:42:32;1.60;;;1.50;;
5491;SDS011;2768;53.540;10.224;2023-06-22T19:48:26;1.70;;;1.60;;
5491;SDS011;2768;53.540;10.224;2023-06-22T19:54:20;1.90;;;1.50;;
5491;SDS011;2768;53.540;10.224;2023-06-22T20:00:19;1.50;;;1.40;;
5491;SDS011;2768;53.540;10.224;2023-06-22T20:06:15;3.00;;;2.03;;
5491;SDS011;2768;53.540;10.224;2023-06-22T20:18:15;1.90;;;1.80;;
5491;SDS011;2768;53.540;10.224;2023-06-22T20:24:10;2.07;;;1.97;;
5491;SDS011;2768;53.540;10.224;2023-06-22T20:30:11;2.00;;;1.90;;
5491;SDS011;2768;53.540;10.224;2023-06-22T20:36:07;1.73;;;1.63;;
5491;SDS011;2768;53.540;10.224;2023-06-22T20:42:02;4.03;;;2.10;;
5491;SDS011;2768;53.540;10.224;2023-06-22T20:47:57;3.90;;;3.00;;
5491;SDS011;2768;53.540;10.224;2023-06-22T20:53:52;3.80;;;2.50;;
5491;SDS011;2768;53.540;10.224;2023-06-22T20:59:46;2.97;;;2.30;;
5491;SDS011;2768;53.540;10.224;2023-06-22T21:05:40;4.70;;;2.27;;
5491;SDS011;2768;53.540;10.224;2023-06-22T21:11:35;2.70;;;2.50;;
5491;SDS011;2768;53.540;10.224;2023-06-22T21:17:29;3.60;;;2.40;;
5491;SDS011;2768;53.540;10.224;2023-06-22T21:23:22;3.20;;;2.27;;
5491;SDS011;2768;53.540;10.224;2023-06-22T21:29:17;2.47;;;2.27;;
5491;SDS011;2768;53.540;10.224;2023-06-22T21:35:11;4.97;;;2.67;;
5491;SDS011;2768;53.540;10.224;2023-06-22T21:41:05;4.93;;;2.70;;
5491;SDS011;2768;53.540;10.224;2023-06-22T21:47:00;3.77;;;2.70;;
5491;SDS011;2768;53.540;10.224;2023-06-22T21:52:54;2.97;;;2.70;;
5491;SDS011;2768;53.540;10.224;2023-06-22T21:58:47;9.50;;;6.47;;
5491;SDS011;2768;53.540;10.224;2023-06-22T22:04:42;3.47;;;3.13;;
5491;SDS011;2768;53.540;10.224;2023-06-22T22:10:36;4.80;;;3.07;;
5491;SDS011;2768;53.540;10.224;2023-06-22T22:16:30;3.90;;;2.80;;
5491;SDS011;2768;53.540;10.224;2023-06-22T22:22:25;3.00;;;2.80;;
5491;SDS011;2768;53.540;10.224;2023-06-22T22:28:18;4.60;;;3.00;;
5491;SDS011;2768;53.540;10.224;2023-06-22T22:34:12;4.03;;;3.13;;
5491;SDS011;2768;53.540;10.224;2023-06-22T22:40:07;3.57;;;2.73;;
5491;SDS011;2768;53.540;10.224;2023-06-22T22:46:02;4.70;;;3.17;;
5491;SDS011;2768;53.540;10.224;2023-06-22T22:51:55;3.63;;;3.33;;
5491;SDS011;2768;53.540;10.224;2023-06-22T22:57:50;4.50;;;3.13;;
5491;SDS011;2768;53.540;10.224;2023-06-22T23:03:45;4.13;;;3.80;;
5491;SDS011;2768;53.540;10.224;2023-06-22T23:09:39;4.17;;;3.77;;
5491;SDS011;2768;53.540;10.224;2023-06-22T23:15:34;4.93;;;3.93;;
5491;SDS011;2768;53.540;10.224;2023-06-22T23:21:28;4.00;;;3.10;;
5491;SDS011;2768;53.540;10.224;2023-06-22T23:27:21;3.93;;;3.47;;
5491;SDS011;2768;53.540;10.224;2023-06-22T23:33:16;7.20;;;4.10;;
5491;SDS011;2768;53.540;10.224;2023-06-22T23:39:10;7.27;;;4.53;;
5491;SDS011;2768;53.540;10.224;2023-06-22T23:45:05;6.43;;;4.37;;
5491;SDS011;2768;53.540;10.224;2023-06-22T23:51:00;5.30;;;4.67;;
5491;SDS011;2768;53.540;10.224;2023-06-22T23:56:54;5.47;;;4.60;;
